Terminal Aerodrome Forecast
Issued by NWS Tulsa, OK

Home | Current Version | Previous Version | Text Only | Print | Product List | Glossary On
Versions: 1 2 3 4 5 6 7 8 9 10 11 12 13 14
000
FTUS44 KTSA 302338
TAFFSM
TAF
KFSM 302338Z 3100/3124 07006KT P6SM BKN100
     FM310600 06006KT P6SM BKN050
     FM311000 08003KT 4SM BR BKN040
      TEMPO 3112/3115 2SM BR SCT015 BKN025
     FM311600 06003KT P6SM BKN035
     FM311800 14006KT P6SM BKN050 PROB30 3118/3124 5SM -TSRA
      BKN030CB=

USA.gov is the U.S. government's official web portal to all federal, state and local government web resources and services.